sensor_id;sensor_type;location;lat;lon;timestamp;temperature;humidity
33803;DHT22;20110;53.120;5.786;2022-10-16T00:01:13;11.50;99.90
33803;DHT22;20110;53.120;5.786;2022-10-16T00:03:41;11.50;99.90
33803;DHT22;20110;53.120;5.786;2022-10-16T00:06:09;11.50;99.90
33803;DHT22;20110;53.120;5.786;2022-10-16T00:08:36;11.40;99.90
33803;DHT22;20110;53.120;5.786;2022-10-16T00:11:08;11.40;99.90
33803;DHT22;20110;53.120;5.786;2022-10-16T00:14:01;11.40;99.90
33803;DHT22;20110;53.120;5.786;2022-10-16T00:16:29;11.30;99.90
33803;DHT22;20110;53.120;5.786;2022-10-16T00:18:55;11.30;99.90
33803;DHT22;20110;53.120;5.786;2022-10-16T00:21:24;11.40;99.90
33803;DHT22;20110;53.120;5.786;2022-10-16T00:23:54;11.40;99.90
33803;DHT22;20110;53.120;5.786;2022-10-16T00:26:24;11.50;99.90
33803;DHT22;20110;53.120;5.786;2022-10-16T00:28:51;11.50;99.90
33803;DHT22;20110;53.120;5.786;2022-10-16T00:31:19;11.60;99.90
33803;DHT22;20110;53.120;5.786;2022-10-16T00:33:48;11.60;99.90
33803;DHT22;20110;53.120;5.786;2022-10-16T00:36:17;11.60;99.90
33803;DHT22;20110;53.120;5.786;2022-10-16T00:38:44;11.60;99.90
33803;DHT22;20110;53.120;5.786;2022-10-16T00:41:14;11.60;99.90
33803;DHT22;20110;53.120;5.786;2022-10-16T00:46:24;11.60;99.90
33803;DHT22;20110;53.120;5.786;2022-10-16T00:49:11;11.60;99.90
33803;DHT22;20110;53.120;5.786;2022-10-16T00:51:51;11.60;99.90
33803;DHT22;20110;53.120;5.786;2022-10-16T00:54:26;11.60;99.90
33803;DHT22;20110;53.120;5.786;2022-10-16T00:56:54;11.60;99.90
33803;DHT22;20110;53.120;5.786;2022-10-16T00:59:42;11.70;99.90
33803;DHT22;20110;53.120;5.786;2022-10-16T01:02:12;11.70;99.90
33803;DHT22;20110;53.120;5.786;2022-10-16T01:04:47;11.80;99.90
33803;DHT22;20110;53.120;5.786;2022-10-16T01:11:05;11.80;99.90
33803;DHT22;20110;53.120;5.786;2022-10-16T01:13:46;11.90;99.90
33803;DHT22;20110;53.120;5.786;2022-10-16T01:16:40;11.90;99.90
33803;DHT22;20110;53.120;5.786;2022-10-16T01:21:55;12.00;99.90
33803;DHT22;20110;53.120;5.786;2022-10-16T01:27:12;12.00;99.90
33803;DHT22;20110;53.120;5.786;2022-10-16T01:29:59;12.00;99.90
33803;DHT22;20110;53.120;5.786;2022-10-16T01:35:32;12.10;99.90
33803;DHT22;20110;53.120;5.786;2022-10-16T01:38:15;12.10;99.90
33803;DHT22;20110;53.120;5.786;2022-10-16T01:40:45;12.20;99.90
33803;DHT22;20110;53.120;5.786;2022-10-16T01:43:20;12.20;99.90
33803;DHT22;20110;53.120;5.786;2022-10-16T01:45:50;12.20;99.90
33803;DHT22;20110;53.120;5.786;2022-10-16T01:48:19;12.10;99.90
33803;DHT22;20110;53.120;5.786;2022-10-16T01:51:02;12.00;99.90
33803;DHT22;20110;53.120;5.786;2022-10-16T01:53:32;11.80;99.90
33803;DHT22;20110;53.120;5.786;2022-10-16T01:55:59;11.70;99.90
33803;DHT22;20110;53.120;5.786;2022-10-16T01:58:28;11.70;99.90
33803;DHT22;20110;53.120;5.786;2022-10-16T02:01:02;11.70;99.90
33803;DHT22;20110;53.120;5.786;2022-10-16T02:03:30;11.70;99.90
33803;DHT22;20110;53.120;5.786;2022-10-16T02:05:58;11.70;99.90
33803;DHT22;20110;53.120;5.786;2022-10-16T02:08:27;11.60;99.90
33803;DHT22;20110;53.120;5.786;2022-10-16T02:10:58;11.60;99.90
33803;DHT22;20110;53.120;5.786;2022-10-16T02:13:39;11.60;99.90
33803;DHT22;20110;53.120;5.786;2022-10-16T02:16:11;11.70;99.90
33803;DHT22;20110;53.120;5.786;2022-10-16T02:18:41;11.70;99.90
33803;DHT22;20110;53.120;5.786;2022-10-16T02:29:31;11.60;99.90
33803;DHT22;20110;53.120;5.786;2022-10-16T02:32:02;11.60;99.90
33803;DHT22;20110;53.120;5.786;2022-10-16T02:34:32;11.60;99.90
33803;DHT22;20110;53.120;5.786;2022-10-16T02:37:00;11.60;99.90
33803;DHT22;20110;53.120;5.786;2022-10-16T02:39:29;11.60;99.90
33803;DHT22;20110;53.120;5.786;2022-10-16T02:41:56;11.60;99.90
33803;DHT22;20110;53.120;5.786;2022-10-16T02:44:22;11.50;99.90
33803;DHT22;20110;53.120;5.786;2022-10-16T02:46:48;11.40;99.90
33803;DHT22;20110;53.120;5.786;2022-10-16T02:49:13;11.40;99.90
33803;DHT22;20110;53.120;5.786;2022-10-16T02:51:39;11.30;99.90
33803;DHT22;20110;53.120;5.786;2022-10-16T02:54:05;11.30;99.90
33803;DHT22;20110;53.120;5.786;2022-10-16T02:56:31;11.30;99.90
33803;DHT22;20110;53.120;5.786;2022-10-16T02:58:57;11.20;99.90
33803;DHT22;20110;53.120;5.786;2022-10-16T03:01:23;11.10;99.90
33803;DHT22;20110;53.120;5.786;2022-10-16T03:03:49;11.10;99.90
33803;DHT22;20110;53.120;5.786;2022-10-16T03:06:15;11.10;99.90
33803;DHT22;20110;53.120;5.786;2022-10-16T03:08:41;11.20;99.90
33803;DHT22;20110;53.120;5.786;2022-10-16T03:11:07;11.20;99.90
33803;DHT22;20110;53.120;5.786;2022-10-16T03:13:33;11.30;99.90
33803;DHT22;20110;53.120;5.786;2022-10-16T03:15:59;11.40;99.90
33803;DHT22;20110;53.120;5.786;2022-10-16T03:18:25;11.40;99.90
33803;DHT22;20110;53.120;5.786;2022-10-16T03:20:51;11.30;99.90
33803;DHT22;20110;53.120;5.786;2022-10-16T03:23:16;11.30;99.90
33803;DHT22;20110;53.120;5.786;2022-10-16T03:25:42;11.30;99.90
33803;DHT22;20110;53.120;5.786;2022-10-16T03:28:08;11.30;99.90
33803;DHT22;20110;53.120;5.786;2022-10-16T03:30:34;11.30;99.90
33803;DHT22;20110;53.120;5.786;2022-10-16T03:33:00;11.30;99.90
33803;DHT22;20110;53.120;5.786;2022-10-16T03:35:26;11.40;99.90
33803;DHT22;20110;53.120;5.786;2022-10-16T03:37:51;11.40;99.90
33803;DHT22;20110;53.120;5.786;2022-10-16T03:40:18;11.30;99.90
33803;DHT22;20110;53.120;5.786;2022-10-16T03:42:44;11.40;99.90
33803;DHT22;20110;53.120;5.786;2022-10-16T03:45:11;11.40;99.90
33803;DHT22;20110;53.120;5.786;2022-10-16T03:47:37;11.50;99.90
33803;DHT22;20110;53.120;5.786;2022-10-16T03:50:03;11.60;99.90
33803;DHT22;20110;53.120;5.786;2022-10-16T03:52:30;11.60;99.90
33803;DHT22;20110;53.120;5.786;2022-10-16T03:54:57;11.60;99.90
33803;DHT22;20110;53.120;5.786;2022-10-16T03:57:23;11.50;99.90
33803;DHT22;20110;53.120;5.786;2022-10-16T03:59:49;11.50;99.90
33803;DHT22;20110;53.120;5.786;2022-10-16T04:02:16;11.50;99.90
33803;DHT22;20110;53.120;5.786;2022-10-16T04:04:42;11.50;99.90
33803;DHT22;20110;53.120;5.786;2022-10-16T04:07:07;11.60;99.90
33803;DHT22;20110;53.120;5.786;2022-10-16T04:09:33;11.60;99.90
33803;DHT22;20110;53.120;5.786;2022-10-16T04:11:59;11.70;99.90
33803;DHT22;20110;53.120;5.786;2022-10-16T04:14:25;11.70;99.90
33803;DHT22;20110;53.120;5.786;2022-10-16T04:16:51;11.70;99.90
33803;DHT22;20110;53.120;5.786;2022-10-16T04:19:16;11.60;99.90
33803;DHT22;20110;53.120;5.786;2022-10-16T04:21:42;11.60;99.90
33803;DHT22;20110;53.120;5.786;2022-10-16T04:24:08;11.50;99.90
33803;DHT22;20110;53.120;5.786;2022-10-16T04:26:33;11.50;99.90
33803;DHT22;20110;53.120;5.786;2022-10-16T04:28:59;11.40;99.90
33803;DHT22;20110;53.120;5.786;2022-10-16T04:31:25;11.40;99.90
33803;DHT22;20110;53.120;5.786;2022-10-16T04:33:51;11.30;99.90
33803;DHT22;20110;53.120;5.786;2022-10-16T04:36:17;11.30;99.90
33803;DHT22;20110;53.120;5.786;2022-10-16T04:38:42;11.20;99.90
33803;DHT22;20110;53.120;5.786;2022-10-16T04:41:08;11.10;99.90
33803;DHT22;20110;53.120;5.786;2022-10-16T04:43:34;11.10;99.90
33803;DHT22;20110;53.120;5.786;2022-10-16T04:46:00;11.10;99.90
33803;DHT22;20110;53.120;5.786;2022-10-16T04:48:27;11.10;99.90
33803;DHT22;20110;53.120;5.786;2022-10-16T04:50:53;11.10;99.90
33803;DHT22;20110;53.120;5.786;2022-10-16T04:53:19;11.10;99.90
33803;DHT22;20110;53.120;5.786;2022-10-16T04:55:45;11.10;99.90
33803;DHT22;20110;53.120;5.786;2022-10-16T04:58:11;11.10;99.90
33803;DHT22;20110;53.120;5.786;2022-10-16T05:00:37;11.10;99.90
33803;DHT22;20110;53.120;5.786;2022-10-16T05:03:03;11.20;99.90
33803;DHT22;20110;53.120;5.786;2022-10-16T05:05:32;11.20;99.90
33803;DHT22;20110;53.120;5.786;2022-10-16T05:07:58;11.10;99.90
33803;DHT22;20110;53.120;5.786;2022-10-16T05:10:24;11.20;99.90
33803;DHT22;20110;53.120;5.786;2022-10-16T05:12:50;11.10;99.90
33803;DHT22;20110;53.120;5.786;2022-10-16T05:15:17;11.20;99.90
33803;DHT22;20110;53.120;5.786;2022-10-16T05:17:43;11.20;99.90
33803;DHT22;20110;53.120;5.786;2022-10-16T05:20:10;11.20;99.90
33803;DHT22;20110;53.120;5.786;2022-10-16T05:22:36;11.30;99.90
33803;DHT22;20110;53.120;5.786;2022-10-16T05:25:02;11.30;99.90
33803;DHT22;20110;53.120;5.786;2022-10-16T05:27:28;11.20;99.90
33803;DHT22;20110;53.120;5.786;2022-10-16T05:29:54;11.20;99.90
33803;DHT22;20110;53.120;5.786;2022-10-16T05:32:19;11.20;99.90
33803;DHT22;20110;53.120;5.786;2022-10-16T05:34:45;11.20;99.90
33803;DHT22;20110;53.120;5.786;2022-10-16T05:37:12;11.20;99.90
33803;DHT22;20110;53.120;5.786;2022-10-16T05:39:41;11.10;99.90
33803;DHT22;20110;53.120;5.786;2022-10-16T05:42:06;11.10;99.90
33803;DHT22;20110;53.120;5.786;2022-10-16T05:44:32;11.10;99.90
33803;DHT22;20110;53.120;5.786;2022-10-16T05:46:58;11.10;99.90
33803;DHT22;20110;53.120;5.786;2022-10-16T05:49:24;11.10;99.90
33803;DHT22;20110;53.120;5.786;2022-10-16T05:51:50;11.10;99.90
33803;DHT22;20110;53.120;5.786;2022-10-16T05:54:16;11.20;99.90
33803;DHT22;20110;53.120;5.786;2022-10-16T05:56:42;11.20;99.90
33803;DHT22;20110;53.120;5.786;2022-10-16T05:59:08;11.20;99.90
33803;DHT22;20110;53.120;5.786;2022-10-16T06:01:34;11.10;99.90
33803;DHT22;20110;53.120;5.786;2022-10-16T06:04:01;11.20;99.90
33803;DHT22;20110;53.120;5.786;2022-10-16T06:06:28;11.20;99.90
33803;DHT22;20110;53.120;5.786;2022-10-16T06:08:55;11.20;99.90
33803;DHT22;20110;53.120;5.786;2022-10-16T06:11:27;11.20;99.90
33803;DHT22;20110;53.120;5.786;2022-10-16T06:13:57;11.20;99.90
33803;DHT22;20110;53.120;5.786;2022-10-16T06:16:27;11.20;99.90
33803;DHT22;20110;53.120;5.786;2022-10-16T06:18:54;11.20;99.90
33803;DHT22;20110;53.120;5.786;2022-10-16T06:21:23;11.30;99.90
33803;DHT22;20110;53.120;5.786;2022-10-16T06:23:50;11.30;99.90
33803;DHT22;20110;53.120;5.786;2022-10-16T06:26:19;11.30;99.90
33803;DHT22;20110;53.120;5.786;2022-10-16T06:28:47;11.30;99.90
33803;DHT22;20110;53.120;5.786;2022-10-16T06:31:13;11.40;99.90
33803;DHT22;20110;53.120;5.786;2022-10-16T06:33:40;11.40;99.90
33803;DHT22;20110;53.120;5.786;2022-10-16T06:36:11;11.40;99.90
33803;DHT22;20110;53.120;5.786;2022-10-16T06:38:38;11.50;99.90
33803;DHT22;20110;53.120;5.786;2022-10-16T06:41:05;11.40;99.90
33803;DHT22;20110;53.120;5.786;2022-10-16T06:43:33;11.30;99.90
33803;DHT22;20110;53.120;5.786;2022-10-16T06:46:03;11.30;99.90
33803;DHT22;20110;53.120;5.786;2022-10-16T06:48:33;11.30;99.90
33803;DHT22;20110;53.120;5.786;2022-10-16T06:51:00;11.30;99.90
33803;DHT22;20110;53.120;5.786;2022-10-16T06:53:45;11.20;99.90
33803;DHT22;20110;53.120;5.786;2022-10-16T06:56:25;11.10;99.90
33803;DHT22;20110;53.120;5.786;2022-10-16T06:58:53;11.20;99.90
33803;DHT22;20110;53.120;5.786;2022-10-16T07:01:21;11.20;99.90
33803;DHT22;20110;53.120;5.786;2022-10-16T07:03:48;11.30;99.90
33803;DHT22;20110;53.120;5.786;2022-10-16T07:06:17;11.30;99.90
33803;DHT22;20110;53.120;5.786;2022-10-16T07:08:46;11.30;99.90
33803;DHT22;20110;53.120;5.786;2022-10-16T07:11:14;11.30;99.90
33803;DHT22;20110;53.120;5.786;2022-10-16T07:13:43;11.40;99.90
33803;DHT22;20110;53.120;5.786;2022-10-16T07:16:18;11.30;99.90
33803;DHT22;20110;53.120;5.786;2022-10-16T07:18:45;11.10;99.90
33803;DHT22;20110;53.120;5.786;2022-10-16T07:21:14;11.10;99.90
33803;DHT22;20110;53.120;5.786;2022-10-16T07:23:41;11.30;99.90
33803;DHT22;20110;53.120;5.786;2022-10-16T07:26:09;11.10;99.90
33803;DHT22;20110;53.120;5.786;2022-10-16T07:28:36;11.10;99.90
33803;DHT22;20110;53.120;5.786;2022-10-16T07:31:03;11.10;99.90
33803;DHT22;20110;53.120;5.786;2022-10-16T07:33:31;11.20;99.90
33803;DHT22;20110;53.120;5.786;2022-10-16T07:35:57;11.20;99.90
33803;DHT22;20110;53.120;5.786;2022-10-16T07:38:23;11.30;99.90
33803;DHT22;20110;53.120;5.786;2022-10-16T07:40:57;11.40;99.90
33803;DHT22;20110;53.120;5.786;2022-10-16T07:43:25;11.50;99.90
33803;DHT22;20110;53.120;5.786;2022-10-16T07:45:52;11.50;99.90
33803;DHT22;20110;53.120;5.786;2022-10-16T07:48:18;11.50;99.90
33803;DHT22;20110;53.120;5.786;2022-10-16T07:50:45;11.60;99.90
33803;DHT22;20110;53.120;5.786;2022-10-16T07:53:11;11.60;99.90
33803;DHT22;20110;53.120;5.786;2022-10-16T07:55:37;11.60;99.90
33803;DHT22;20110;53.120;5.786;2022-10-16T07:58:04;11.60;99.90
33803;DHT22;20110;53.120;5.786;2022-10-16T08:00:31;11.50;99.90
33803;DHT22;20110;53.120;5.786;2022-10-16T08:02:57;11.50;99.90
33803;DHT22;20110;53.120;5.786;2022-10-16T08:05:28;11.40;99.90
33803;DHT22;20110;53.120;5.786;2022-10-16T08:07:55;11.40;99.90
33803;DHT22;20110;53.120;5.786;2022-10-16T08:10:22;11.40;99.90
33803;DHT22;20110;53.120;5.786;2022-10-16T08:12:50;11.40;99.90
33803;DHT22;20110;53.120;5.786;2022-10-16T08:15:17;11.50;99.90
33803;DHT22;20110;53.120;5.786;2022-10-16T08:17:43;11.40;99.90
33803;DHT22;20110;53.120;5.786;2022-10-16T08:20:10;11.40;99.90
33803;DHT22;20110;53.120;5.786;2022-10-16T08:22:36;11.50;99.90
33803;DHT22;20110;53.120;5.786;2022-10-16T08:25:02;11.50;99.90
33803;DHT22;20110;53.120;5.786;2022-10-16T08:27:34;11.50;99.90
33803;DHT22;20110;53.120;5.786;2022-10-16T08:30:00;11.60;99.90
33803;DHT22;20110;53.120;5.786;2022-10-16T08:32:25;11.60;99.90
33803;DHT22;20110;53.120;5.786;2022-10-16T08:34:51;11.70;99.90
33803;DHT22;20110;53.120;5.786;2022-10-16T08:37:17;11.80;99.90
33803;DHT22;20110;53.120;5.786;2022-10-16T08:39:43;11.80;99.90
33803;DHT22;20110;53.120;5.786;2022-10-16T08:48:16;12.20;99.90
33803;DHT22;20110;53.120;5.786;2022-10-16T08:50:47;12.30;99.90
33803;DHT22;20110;53.120;5.786;2022-10-16T08:53:22;12.40;99.90
33803;DHT22;20110;53.120;5.786;2022-10-16T08:55:53;12.60;99.90
33803;DHT22;20110;53.120;5.786;2022-10-16T08:58:22;12.60;99.90
33803;DHT22;20110;53.120;5.786;2022-10-16T09:00:56;12.50;99.90
33803;DHT22;20110;53.120;5.786;2022-10-16T09:12:40;12.90;99.90
33803;DHT22;20110;53.120;5.786;2022-10-16T09:15:24;12.80;99.90
33803;DHT22;20110;53.120;5.786;2022-10-16T09:21:44;13.20;99.90
33803;DHT22;20110;53.120;5.786;2022-10-16T09:23:54;13.30;99.90
33803;DHT22;20110;53.120;5.786;2022-10-16T09:26:24;13.40;99.90
33803;DHT22;20110;53.120;5.786;2022-10-16T09:28:52;13.00;99.90
33803;DHT22;20110;53.120;5.786;2022-10-16T09:31:20;12.90;99.90
33803;DHT22;20110;53.120;5.786;2022-10-16T09:33:53;12.80;99.90
33803;DHT22;20110;53.120;5.786;2022-10-16T09:36:23;13.00;99.90
33803;DHT22;20110;53.120;5.786;2022-10-16T09:39:05;13.00;99.90
33803;DHT22;20110;53.120;5.786;2022-10-16T09:41:36;13.10;99.90
33803;DHT22;20110;53.120;5.786;2022-10-16T09:44:13;13.20;99.90
33803;DHT22;20110;53.120;5.786;2022-10-16T09:47:14;13.60;99.90
33803;DHT22;20110;53.120;5.786;2022-10-16T09:52:31;13.70;99.90
33803;DHT22;20110;53.120;5.786;2022-10-16T09:55:13;14.20;99.90
33803;DHT22;20110;53.120;5.786;2022-10-16T09:57:51;14.50;99.90
33803;DHT22;20110;53.120;5.786;2022-10-16T10:00:19;14.70;99.90
33803;DHT22;20110;53.120;5.786;2022-10-16T10:02:46;15.00;99.90
33803;DHT22;20110;53.120;5.786;2022-10-16T10:05:27;14.70;99.90
33803;DHT22;20110;53.120;5.786;2022-10-16T10:07:59;14.80;99.90
33803;DHT22;20110;53.120;5.786;2022-10-16T10:10:33;15.00;99.90
33803;DHT22;20110;53.120;5.786;2022-10-16T10:13:02;14.60;99.90
33803;DHT22;20110;53.120;5.786;2022-10-16T10:15:33;14.50;99.90
33803;DHT22;20110;53.120;5.786;2022-10-16T10:18:01;14.50;99.90
33803;DHT22;20110;53.120;5.786;2022-10-16T10:20:33;14.50;99.90
33803;DHT22;20110;53.120;5.786;2022-10-16T10:23:13;14.60;99.90
33803;DHT22;20110;53.120;5.786;2022-10-16T10:37:59;15.20;99.90
33803;DHT22;20110;53.120;5.786;2022-10-16T10:46:35;15.30;99.90
33803;DHT22;20110;53.120;5.786;2022-10-16T10:55:04;15.30;99.90
33803;DHT22;20110;53.120;5.786;2022-10-16T11:03:59;15.00;99.90
33803;DHT22;20110;53.120;5.786;2022-10-16T11:06:38;14.70;99.90
33803;DHT22;20110;53.120;5.786;2022-10-16T11:09:37;14.70;99.90
33803;DHT22;20110;53.120;5.786;2022-10-16T11:12:26;14.80;99.90
33803;DHT22;20110;53.120;5.786;2022-10-16T11:15:12;14.90;99.90
33803;DHT22;20110;53.120;5.786;2022-10-16T11:17:49;15.20;99.90
33803;DHT22;20110;53.120;5.786;2022-10-16T11:20:29;15.10;99.90
33803;DHT22;20110;53.120;5.786;2022-10-16T11:23:25;15.10;99.90
33803;DHT22;20110;53.120;5.786;2022-10-16T11:26:15;15.20;99.90
33803;DHT22;20110;53.120;5.786;2022-10-16T11:28:53;15.30;99.90
33803;DHT22;20110;53.120;5.786;2022-10-16T11:34:24;15.90;99.90
33803;DHT22;20110;53.120;5.786;2022-10-16T11:37:08;16.10;99.90
33803;DHT22;20110;53.120;5.786;2022-10-16T11:39:40;15.90;99.90
33803;DHT22;20110;53.120;5.786;2022-10-16T11:42:16;16.40;99.90
33803;DHT22;20110;53.120;5.786;2022-10-16T11:48:02;15.90;99.90
33803;DHT22;20110;53.120;5.786;2022-10-16T11:50:50;15.80;99.90
33803;DHT22;20110;53.120;5.786;2022-10-16T11:53:35;15.70;99.90
33803;DHT22;20110;53.120;5.786;2022-10-16T11:56:13;15.70;99.90
33803;DHT22;20110;53.120;5.786;2022-10-16T11:58:54;15.70;99.90
33803;DHT22;20110;53.120;5.786;2022-10-16T12:07:24;16.00;99.90
33803;DHT22;20110;53.120;5.786;2022-10-16T12:09:58;16.10;99.90
33803;DHT22;20110;53.120;5.786;2022-10-16T12:17:53;15.80;99.90
33803;DHT22;20110;53.120;5.786;2022-10-16T12:20:21;15.70;99.90
33803;DHT22;20110;53.120;5.786;2022-10-16T12:22:52;15.60;99.90
33803;DHT22;20110;53.120;5.786;2022-10-16T12:25:32;15.50;99.90
33803;DHT22;20110;53.120;5.786;2022-10-16T12:31:02;15.20;99.90
33803;DHT22;20110;53.120;5.786;2022-10-16T12:33:36;15.30;99.90
33803;DHT22;20110;53.120;5.786;2022-10-16T12:36:30;15.10;99.90
33803;DHT22;20110;53.120;5.786;2022-10-16T12:38:58;14.60;99.90
33803;DHT22;20110;53.120;5.786;2022-10-16T12:41:35;14.70;99.90
33803;DHT22;20110;53.120;5.786;2022-10-16T12:44:24;14.60;99.90
33803;DHT22;20110;53.120;5.786;2022-10-16T12:46:51;14.30;99.90
33803;DHT22;20110;53.120;5.786;2022-10-16T12:49:34;14.30;99.90
33803;DHT22;20110;53.120;5.786;2022-10-16T12:52:03;14.30;99.90
33803;DHT22;20110;53.120;5.786;2022-10-16T12:54:37;14.40;99.90
33803;DHT22;20110;53.120;5.786;2022-10-16T12:57:34;14.50;99.90
33803;DHT22;20110;53.120;5.786;2022-10-16T13:06:33;14.80;99.90
33803;DHT22;20110;53.120;5.786;2022-10-16T13:21:34;14.70;99.90
33803;DHT22;20110;53.120;5.786;2022-10-16T13:30:17;15.00;99.90
33803;DHT22;20110;53.120;5.786;2022-10-16T13:33:02;15.20;99.90
33803;DHT22;20110;53.120;5.786;2022-10-16T13:35:54;15.20;99.90
33803;DHT22;20110;53.120;5.786;2022-10-16T13:38:23;15.30;99.90
33803;DHT22;20110;53.120;5.786;2022-10-16T13:40:54;15.40;99.90
33803;DHT22;20110;53.120;5.786;2022-10-16T13:43:39;15.60;99.90
33803;DHT22;20110;53.120;5.786;2022-10-16T13:46:21;15.40;99.90
33803;DHT22;20110;53.120;5.786;2022-10-16T13:51:32;15.30;99.90
33803;DHT22;20110;53.120;5.786;2022-10-16T13:53:59;15.30;99.90
33803;DHT22;20110;53.120;5.786;2022-10-16T13:56:30;15.50;99.90
33803;DHT22;20110;53.120;5.786;2022-10-16T13:59:05;15.50;99.90
33803;DHT22;20110;53.120;5.786;2022-10-16T14:01:47;15.50;99.90
33803;DHT22;20110;53.120;5.786;2022-10-16T14:04:14;15.30;99.90
33803;DHT22;20110;53.120;5.786;2022-10-16T14:06:44;15.30;99.90
33803;DHT22;20110;53.120;5.786;2022-10-16T14:09:29;15.30;99.90
33803;DHT22;20110;53.120;5.786;2022-10-16T14:11:58;15.20;99.90
33803;DHT22;20110;53.120;5.786;2022-10-16T14:14:34;15.20;99.90
33803;DHT22;20110;53.120;5.786;2022-10-16T14:17:33;15.10;99.90
33803;DHT22;20110;53.120;5.786;2022-10-16T14:20:03;14.90;99.90
33803;DHT22;20110;53.120;5.786;2022-10-16T14:22:39;14.90;99.90
33803;DHT22;20110;53.120;5.786;2022-10-16T14:27:45;14.80;99.90
33803;DHT22;20110;53.120;5.786;2022-10-16T14:30:22;14.80;99.90
33803;DHT22;20110;53.120;5.786;2022-10-16T14:33:03;14.80;99.90
33803;DHT22;20110;53.120;5.786;2022-10-16T14:35:46;14.80;99.90
33803;DHT22;20110;53.120;5.786;2022-10-16T14:38:20;14.70;99.90
33803;DHT22;20110;53.120;5.786;2022-10-16T14:40:48;14.50;99.90
33803;DHT22;20110;53.120;5.786;2022-10-16T14:43:26;14.30;99.90
33803;DHT22;20110;53.120;5.786;2022-10-16T14:45:57;14.10;99.90
33803;DHT22;20110;53.120;5.786;2022-10-16T14:48:24;14.10;99.90
33803;DHT22;20110;53.120;5.786;2022-10-16T14:50:50;14.00;99.90
33803;DHT22;20110;53.120;5.786;2022-10-16T14:53:16;14.00;99.90
33803;DHT22;20110;53.120;5.786;2022-10-16T14:55:42;14.00;99.90
33803;DHT22;20110;53.120;5.786;2022-10-16T14:58:20;14.10;99.90
33803;DHT22;20110;53.120;5.786;2022-10-16T15:00:47;14.10;99.90
33803;DHT22;20110;53.120;5.786;2022-10-16T15:03:14;14.20;99.90
33803;DHT22;20110;53.120;5.786;2022-10-16T15:05:40;14.20;99.90
33803;DHT22;20110;53.120;5.786;2022-10-16T15:08:06;14.20;99.90
33803;DHT22;20110;53.120;5.786;2022-10-16T15:10:38;14.20;99.90
33803;DHT22;20110;53.120;5.786;2022-10-16T15:13:08;14.30;99.90
33803;DHT22;20110;53.120;5.786;2022-10-16T15:15:39;14.20;99.90
33803;DHT22;20110;53.120;5.786;2022-10-16T15:18:08;14.10;99.90
33803;DHT22;20110;53.120;5.786;2022-10-16T15:20:36;14.00;99.90
33803;DHT22;20110;53.120;5.786;2022-10-16T15:23:06;14.00;99.90
33803;DHT22;20110;53.120;5.786;2022-10-16T15:25:58;14.00;99.90
33803;DHT22;20110;53.120;5.786;2022-10-16T15:28:25;13.90;99.90
33803;DHT22;20110;53.120;5.786;2022-10-16T15:30:56;13.80;99.90
33803;DHT22;20110;53.120;5.786;2022-10-16T15:33:26;13.80;99.90
33803;DHT22;20110;53.120;5.786;2022-10-16T15:35:55;13.70;99.90
33803;DHT22;20110;53.120;5.786;2022-10-16T15:38:22;13.70;99.90
33803;DHT22;20110;53.120;5.786;2022-10-16T15:40:49;13.70;99.90
33803;DHT22;20110;53.120;5.786;2022-10-16T15:43:15;13.70;99.90
33803;DHT22;20110;53.120;5.786;2022-10-16T15:45:41;13.70;99.90
33803;DHT22;20110;53.120;5.786;2022-10-16T15:48:10;13.60;99.90
33803;DHT22;20110;53.120;5.786;2022-10-16T15:50:38;13.60;99.90
33803;DHT22;20110;53.120;5.786;2022-10-16T15:53:05;13.60;99.90
33803;DHT22;20110;53.120;5.786;2022-10-16T15:55:30;13.60;99.90
33803;DHT22;20110;53.120;5.786;2022-10-16T15:57:56;13.50;99.90
33803;DHT22;20110;53.120;5.786;2022-10-16T16:00:22;13.40;99.90
33803;DHT22;20110;53.120;5.786;2022-10-16T16:02:52;13.30;99.90
33803;DHT22;20110;53.120;5.786;2022-10-16T16:05:20;13.10;99.90
33803;DHT22;20110;53.120;5.786;2022-10-16T16:07:47;13.00;99.90
33803;DHT22;20110;53.120;5.786;2022-10-16T16:10:15;13.00;99.90
33803;DHT22;20110;53.120;5.786;2022-10-16T16:12:41;12.80;99.90
33803;DHT22;20110;53.120;5.786;2022-10-16T16:15:08;12.60;99.90
33803;DHT22;20110;53.120;5.786;2022-10-16T16:17:35;12.60;99.90
33803;DHT22;20110;53.120;5.786;2022-10-16T16:20:03;12.60;99.90
33803;DHT22;20110;53.120;5.786;2022-10-16T16:22:30;12.50;99.90
33803;DHT22;20110;53.120;5.786;2022-10-16T16:24:56;12.40;99.90
33803;DHT22;20110;53.120;5.786;2022-10-16T16:27:21;12.30;99.90
33803;DHT22;20110;53.120;5.786;2022-10-16T16:29:50;12.30;99.90
33803;DHT22;20110;53.120;5.786;2022-10-16T16:32:15;12.20;99.90
33803;DHT22;20110;53.120;5.786;2022-10-16T16:34:41;12.10;99.90
33803;DHT22;20110;53.120;5.786;2022-10-16T16:37:07;11.90;99.90
33803;DHT22;20110;53.120;5.786;2022-10-16T16:39:33;11.70;99.90
33803;DHT22;20110;53.120;5.786;2022-10-16T16:41:59;11.70;99.90
33803;DHT22;20110;53.120;5.786;2022-10-16T16:44:26;11.60;99.90
33803;DHT22;20110;53.120;5.786;2022-10-16T16:46:52;11.50;99.90
33803;DHT22;20110;53.120;5.786;2022-10-16T16:49:18;11.50;99.90
33803;DHT22;20110;53.120;5.786;2022-10-16T16:51:44;11.40;99.90
33803;DHT22;20110;53.120;5.786;2022-10-16T16:54:10;11.40;99.90
33803;DHT22;20110;53.120;5.786;2022-10-16T16:56:38;11.30;99.90
33803;DHT22;20110;53.120;5.786;2022-10-16T16:59:04;11.30;99.90
33803;DHT22;20110;53.120;5.786;2022-10-16T17:01:30;11.20;99.90
33803;DHT22;20110;53.120;5.786;2022-10-16T17:03:57;11.20;99.90
33803;DHT22;20110;53.120;5.786;2022-10-16T17:06:27;11.20;99.90
33803;DHT22;20110;53.120;5.786;2022-10-16T17:08:57;11.30;99.90
33803;DHT22;20110;53.120;5.786;2022-10-16T17:11:27;11.30;99.90
33803;DHT22;20110;53.120;5.786;2022-10-16T17:13:54;11.30;99.90
33803;DHT22;20110;53.120;5.786;2022-10-16T17:16:24;11.40;99.90
33803;DHT22;20110;53.120;5.786;2022-10-16T17:18:52;11.30;99.90
33803;DHT22;20110;53.120;5.786;2022-10-16T17:21:18;11.30;99.90
33803;DHT22;20110;53.120;5.786;2022-10-16T17:23:45;11.30;99.90
33803;DHT22;20110;53.120;5.786;2022-10-16T17:26:15;11.30;99.90
33803;DHT22;20110;53.120;5.786;2022-10-16T17:28:42;11.30;99.90
33803;DHT22;20110;53.120;5.786;2022-10-16T17:31:17;11.20;99.90
33803;DHT22;20110;53.120;5.786;2022-10-16T17:33:44;11.10;99.90
33803;DHT22;20110;53.120;5.786;2022-10-16T17:36:11;11.00;99.90
33803;DHT22;20110;53.120;5.786;2022-10-16T17:38:40;10.80;99.90
33803;DHT22;20110;53.120;5.786;2022-10-16T17:41:14;10.60;99.90
33803;DHT22;20110;53.120;5.786;2022-10-16T17:43:42;10.50;99.90
33803;DHT22;20110;53.120;5.786;2022-10-16T17:46:09;10.50;99.90
33803;DHT22;20110;53.120;5.786;2022-10-16T17:48:38;10.60;99.90
33803;DHT22;20110;53.120;5.786;2022-10-16T17:51:06;10.60;99.90
33803;DHT22;20110;53.120;5.786;2022-10-16T17:53:34;10.70;99.90
33803;DHT22;20110;53.120;5.786;2022-10-16T17:56:07;10.70;99.90